Time;durP1;ratioP1;P1;durP2;ratioP2;P2;SDS_P1;SDS_P2;PMS_P1;PMS_P2;Temp;Humidity;BMP_temperature;BMP_pressure;BME280_temperature;BME280_humidity;BME280_pressure;Samples;Min_cycle;Max_cycle;Signal;HPM_P1;HPM_P2
2021/09/29 00:00:07;;;;;;;16.02;9.63;;;12.50;82.10;;;;;;1905273;74;21063;-51
2021/09/29 00:02:38;;;;;;;17.05;10.35;;;12.50;82.20;;;;;;1905113;74;21125;-51
2021/09/29 00:05:08;;;;;;;18.77;9.58;;;12.50;82.20;;;;;;1905267;75;21054;-51
2021/09/29 00:07:37;;;;;;;16.57;9.53;;;12.60;82.50;;;;;;1868830;77;21081;-51
2021/09/29 00:10:08;;;;;;;16.25;9.25;;;12.60;82.80;;;;;;1905185;75;21023;-51
2021/09/29 00:12:37;;;;;;;12.50;8.88;;;12.60;82.90;;;;;;1868791;76;21084;-51
2021/09/29 00:15:17;;;;;;;11.68;8.23;;;12.70;82.90;;;;;;1905301;75;21097;-50
2021/09/29 00:17:45;;;;;;;15.15;9.10;;;12.70;82.90;;;;;;1866753;77;21074;-51
2021/09/29 00:20:15;;;;;;;13.22;8.38;;;12.70;82.80;;;;;;1905164;75;21077;-51
2021/09/29 00:22:45;;;;;;;14.00;9.03;;;12.70;82.90;;;;;;1868790;77;21022;-52
2021/09/29 00:25:16;;;;;;;14.40;9.10;;;12.70;83.10;;;;;;1905405;74;21019;-52
2021/09/29 00:27:45;;;;;;;12.85;7.97;;;12.70;83.20;;;;;;1868781;77;21163;-52
2021/09/29 00:30:15;;;;;;;11.03;8.20;;;12.70;83.30;;;;;;1905174;75;21080;-51
2021/09/29 00:32:45;;;;;;;15.28;8.35;;;12.80;83.30;;;;;;1868729;77;21092;-51
2021/09/29 00:35:16;;;;;;;16.17;8.68;;;12.80;83.30;;;;;;1920768;74;21043;-51
2021/09/29 00:37:46;;;;;;;15.75;8.08;;;12.80;83.30;;;;;;1924562;74;21180;-51
2021/09/29 00:40:16;;;;;;;15.23;8.98;;;12.70;83.30;;;;;;1924648;74;21088;-52
2021/09/29 00:42:45;;;;;;;10.82;8.10;;;12.80;83.40;;;;;;1924596;74;20999;-51
2021/09/29 00:45:15;;;;;;;15.18;7.78;;;12.70;83.40;;;;;;1924644;74;21088;-51
2021/09/29 00:47:44;;;;;;;12.75;7.92;;;12.70;83.40;;;;;;1924669;74;20995;-51
2021/09/29 00:50:14;;;;;;;10.23;7.95;;;12.70;83.40;;;;;;1924630;74;21014;-50
2021/09/29 00:52:43;;;;;;;10.48;8.10;;;12.60;83.50;;;;;;1924737;74;21035;-51
2021/09/29 00:55:15;;;;;;;14.15;8.33;;;12.60;83.60;;;;;;1924690;74;21104;-51
2021/09/29 00:57:44;;;;;;;13.50;7.87;;;12.60;83.40;;;;;;1924456;74;21046;-51
2021/09/29 01:00:14;;;;;;;11.50;8.08;;;12.60;83.20;;;;;;1924722;74;21472;-51
2021/09/29 01:02:43;;;;;;;12.13;7.80;;;12.60;83.30;;;;;;1924628;74;21128;-50
2021/09/29 01:05:12;;;;;;;10.95;7.40;;;12.60;83.50;;;;;;1924586;74;21058;-51
2021/09/29 01:07:56;;;;;;;11.28;7.33;;;12.60;83.60;;;;;;1924699;74;21487;-51
2021/09/29 01:10:48;;;;;;;12.37;6.53;;;12.60;83.40;;;;;;1924746;74;21104;-53
2021/09/29 01:13:23;;;;;;;11.38;7.42;;;12.60;83.40;;;;;;1924573;74;21034;-53
2021/09/29 01:15:55;;;;;;;16.05;7.70;;;12.60;83.30;;;;;;1887918;76;21535;-53
2021/09/29 01:18:26;;;;;;;10.75;7.10;;;12.60;83.20;;;;;;1875560;76;21133;-53
2021/09/29 01:21:03;;;;;;;10.28;6.75;;;12.60;83.50;;;;;;1877900;76;21014;-53
2021/09/29 01:23:47;;;;;;;12.93;7.15;;;12.60;83.70;;;;;;1877918;76;21102;-53
2021/09/29 01:26:21;;;;;;;13.55;7.50;;;12.60;83.70;;;;;;1877889;76;21088;-53
2021/09/29 01:28:55;;;;;;;11.68;7.10;;;12.60;83.30;;;;;;1877868;76;21093;-52
2021/09/29 01:31:25;;;;;;;10.35;7.30;;;12.60;83.20;;;;;;1876549;76;21050;-52
2021/09/29 01:33:56;;;;;;;11.70;8.10;;;12.60;83.20;;;;;;1877690;76;21132;-53
2021/09/29 01:36:26;;;;;;;11.20;7.15;;;12.60;83.40;;;;;;1871369;77;21047;-53
2021/09/29 01:38:57;;;;;;;9.65;6.60;;;12.60;83.60;;;;;;1871329;77;21062;-52
2021/09/29 01:41:29;;;;;;;12.15;6.50;;;12.60;83.60;;;;;;1871290;77;21459;-53
2021/09/29 01:43:59;;;;;;;12.45;7.40;;;12.70;83.80;;;;;;1871379;77;21019;-53
2021/09/29 01:46:30;;;;;;;12.30;6.83;;;12.70;84.00;;;;;;1871220;77;21031;-52
2021/09/29 01:49:10;;;;;;;11.68;6.92;;;12.70;84.10;;;;;;1871223;77;21096;-53
2021/09/29 01:51:43;;;;;;;10.32;7.42;;;12.70;84.10;;;;;;1870843;76;21062;-52
2021/09/29 01:54:14;;;;;;;11.70;8.10;;;12.70;84.10;;;;;;1871280;77;21051;-52
2021/09/29 01:56:44;;;;;;;9.98;7.35;;;12.70;84.30;;;;;;1871432;77;21168;-52
2021/09/29 01:59:14;;;;;;;10.45;7.20;;;12.80;84.30;;;;;;1871356;77;21069;-50
2021/09/29 02:01:44;;;;;;;12.78;8.33;;;12.80;84.30;;;;;;1871421;77;21074;-52
2021/09/29 02:04:13;;;;;;;12.05;8.55;;;12.80;84.30;;;;;;1871324;77;21140;-53
2021/09/29 02:06:53;;;;;;;12.15;8.63;;;12.80;84.10;;;;;;1871406;77;21039;-52
2021/09/29 02:09:24;;;;;;;11.20;8.53;;;12.80;84.10;;;;;;1871432;77;21086;-51
2021/09/29 02:11:56;;;;;;;16.27;8.43;;;12.80;84.20;;;;;;1871516;77;21486;-52
2021/09/29 02:14:26;;;;;;;14.58;8.63;;;12.70;84.10;;;;;;1871476;77;21054;-50
2021/09/29 02:16:56;;;;;;;13.45;7.85;;;12.70;84.10;;;;;;1871469;77;21101;-53
2021/09/29 02:19:27;;;;;;;11.48;7.47;;;12.60;84.10;;;;;;1871463;77;21098;-52
2021/09/29 02:21:56;;;;;;;11.57;6.87;;;12.60;84.20;;;;;;1871386;77;21059;-53
2021/09/29 02:24:26;;;;;;;14.80;7.17;;;12.60;84.80;;;;;;1871435;77;21039;-51
2021/09/29 02:26:55;;;;;;;12.50;6.87;;;12.50;84.40;;;;;;1871493;77;21101;-53
2021/09/29 02:29:25;;;;;;;12.70;7.37;;;12.50;84.70;;;;;;1871199;77;21038;-52
2021/09/29 02:31:54;;;;;;;11.08;7.17;;;12.50;84.70;;;;;;1871348;77;21090;-51
2021/09/29 02:34:24;;;;;;;10.78;6.80;;;12.50;84.80;;;;;;1871304;77;21070;-52
2021/09/29 02:36:53;;;;;;;11.05;7.03;;;12.50;84.80;;;;;;1871282;77;21122;-52
2021/09/29 02:39:23;;;;;;;12.70;6.95;;;12.50;84.60;;;;;;1871378;77;21093;-52
2021/09/29 02:41:53;;;;;;;19.77;8.33;;;12.50;84.70;;;;;;1871245;77;21086;-52
2021/09/29 02:44:22;;;;;;;14.18;7.12;;;12.50;84.80;;;;;;1871279;77;21035;-52
2021/09/29 02:46:52;;;;;;;12.15;7.62;;;12.50;84.90;;;;;;1871343;77;21031;-52
2021/09/29 02:49:21;;;;;;;11.22;7.28;;;12.50;84.80;;;;;;1871348;77;21015;-52
2021/09/29 02:51:50;;;;;;;11.73;7.05;;;12.50;84.90;;;;;;1871375;77;21027;-52
2021/09/29 02:54:20;;;;;;;18.37;8.30;;;12.50;84.90;;;;;;1871319;77;21088;-52
2021/09/29 02:56:49;;;;;;;12.63;7.00;;;12.50;85.00;;;;;;1871364;77;21096;-53
2021/09/29 02:59:18;;;;;;;12.37;7.58;;;12.50;85.00;;;;;;1871193;77;21466;-52
2021/09/29 03:01:48;;;;;;;17.87;8.70;;;12.50;85.00;;;;;;1871262;77;21039;-52
2021/09/29 03:04:17;;;;;;;15.40;8.40;;;12.50;85.00;;;;;;1871181;77;21109;-52
2021/09/29 03:06:47;;;;;;;15.75;8.15;;;12.50;85.00;;;;;;1871218;77;21031;-50
2021/09/29 03:09:16;;;;;;;16.67;8.48;;;12.50;85.10;;;;;;1871138;77;21015;-52
2021/09/29 03:11:46;;;;;;;12.73;7.75;;;12.50;85.10;;;;;;1871365;77;21027;-52
2021/09/29 03:14:15;;;;;;;17.67;8.33;;;12.50;85.10;;;;;;1871230;77;21105;-51
2021/09/29 03:16:45;;;;;;;11.63;7.60;;;12.50;84.90;;;;;;1871390;77;21542;-53
2021/09/29 03:19:14;;;;;;;11.73;8.68;;;12.40;85.00;;;;;;1871329;77;21023;-53
2021/09/29 03:21:44;;;;;;;11.65;7.80;;;12.50;85.30;;;;;;1871324;77;21039;-53
2021/09/29 03:24:18;;;;;;;17.77;8.28;;;12.50;85.30;;;;;;1871284;77;21132;-52
2021/09/29 03:26:44;;;;;;;15.88;7.17;;;12.50;85.40;;;;;;1870645;77;21094;-52
2021/09/29 03:29:14;;;;;;;17.77;8.05;;;12.60;85.30;;;;;;1871293;77;21140;-52
2021/09/29 03:31:43;;;;;;;16.50;8.00;;;12.60;85.50;;;;;;1871224;77;21050;-52
2021/09/29 03:34:13;;;;;;;20.25;8.50;;;12.60;85.50;;;;;;1871222;77;21051;-53
2021/09/29 03:36:42;;;;;;;16.67;7.95;;;12.60;85.50;;;;;;1871260;77;21062;-52
2021/09/29 03:39:11;;;;;;;11.73;6.97;;;12.60;85.50;;;;;;1871275;77;21035;-53
2021/09/29 03:41:40;;;;;;;15.28;6.58;;;12.60;85.50;;;;;;1871266;77;21027;-52
2021/09/29 03:44:10;;;;;;;18.95;7.65;;;12.50;85.50;;;;;;1871371;77;21105;-53
2021/09/29 03:46:39;;;;;;;15.90;8.00;;;12.50;85.60;;;;;;1871265;77;21125;-51
2021/09/29 03:49:09;;;;;;;21.05;9.78;;;12.50;85.70;;;;;;1871139;77;21148;-53
2021/09/29 03:51:39;;;;;;;9.85;6.55;;;12.50;85.50;;;;;;1871149;77;21031;-52
2021/09/29 03:54:08;;;;;;;18.42;7.40;;;12.50;85.40;;;;;;1871110;77;21094;-52
2021/09/29 03:56:37;;;;;;;12.37;6.85;;;12.50;85.60;;;;;;1871165;77;21035;-53
2021/09/29 03:59:07;;;;;;;12.07;6.70;;;12.50;85.60;;;;;;1871172;77;21051;-53
2021/09/29 04:01:38;;;;;;;9.68;6.20;;;12.40;85.50;;;;;;1871212;77;21015;-52
2021/09/29 04:04:07;;;;;;;13.68;6.40;;;12.30;85.50;;;;;;1871173;77;21031;-53
2021/09/29 04:06:36;;;;;;;14.50;7.00;;;12.30;85.90;;;;;;1871228;77;21015;-52
2021/09/29 04:09:06;;;;;;;18.00;6.47;;;12.30;86.00;;;;;;1871155;77;21055;-52
2021/09/29 04:11:36;;;;;;;15.63;7.20;;;12.30;85.90;;;;;;1871192;77;21027;-52
2021/09/29 04:14:06;;;;;;;14.98;8.78;;;12.30;85.80;;;;;;1871172;77;21043;-52
2021/09/29 04:16:35;;;;;;;15.08;7.50;;;12.30;86.00;;;;;;1871328;77;21093;-52
2021/09/29 04:19:05;;;;;;;15.75;6.83;;;12.20;85.80;;;;;;1871317;77;21106;-52
2021/09/29 04:21:34;;;;;;;13.85;7.05;;;12.30;85.90;;;;;;1871256;77;21559;-51
2021/09/29 04:24:05;;;;;;;9.05;6.15;;;12.20;85.80;;;;;;1871155;77;21094;-52
2021/09/29 04:26:34;;;;;;;15.83;7.17;;;12.30;85.90;;;;;;1871178;76;21152;-52
2021/09/29 04:29:03;;;;;;;14.05;8.95;;;12.30;85.90;;;;;;1871243;77;21012;-50
2021/09/29 04:31:33;;;;;;;20.27;9.15;;;12.30;85.80;;;;;;1871326;76;21096;-53
2021/09/29 04:34:03;;;;;;;18.80;10.05;;;12.30;85.80;;;;;;1871284;77;21040;-52
2021/09/29 04:36:32;;;;;;;24.25;13.38;;;12.20;85.60;;;;;;1871245;77;21070;-52
2021/09/29 04:39:02;;;;;;;29.80;17.27;;;12.20;85.70;;;;;;1871389;77;21055;-52
2021/09/29 04:41:31;;;;;;;31.37;19.87;;;12.20;86.40;;;;;;1871315;77;21027;-52
2021/09/29 04:44:01;;;;;;;24.43;14.35;;;12.20;85.80;;;;;;1871292;77;21015;-52
2021/09/29 04:46:30;;;;;;;18.35;12.85;;;12.20;86.00;;;;;;1871367;77;21039;-52
2021/09/29 04:49:00;;;;;;;24.47;12.28;;;12.20;86.00;;;;;;1871071;77;21031;-52
2021/09/29 04:51:29;;;;;;;18.23;9.73;;;12.20;85.80;;;;;;1871193;77;21097;-53
2021/09/29 04:53:59;;;;;;;24.70;11.08;;;12.20;86.10;;;;;;1871145;77;21039;-52
2021/09/29 04:56:29;;;;;;;13.68;7.47;;;12.20;86.10;;;;;;1871219;77;21097;-52
2021/09/29 04:58:58;;;;;;;14.20;7.03;;;12.20;86.10;;;;;;1871226;77;21035;-51
2021/09/29 05:01:29;;;;;;;17.17;5.92;;;12.20;86.00;;;;;;1871164;77;21031;-52
2021/09/29 05:03:58;;;;;;;10.32;6.55;;;12.20;86.00;;;;;;1871357;77;21043;-52
2021/09/29 05:06:29;;;;;;;11.85;6.92;;;12.20;85.90;;;;;;1871200;77;21101;-53
2021/09/29 05:08:59;;;;;;;14.98;7.45;;;12.10;85.90;;;;;;1871164;77;21043;-53
2021/09/29 05:11:37;;;;;;;25.45;10.80;;;12.10;86.10;;;;;;1871272;77;21149;-52
2021/09/29 05:14:06;;;;;;;17.40;8.38;;;12.20;86.10;;;;;;1863607;77;21035;-51
2021/09/29 05:16:35;;;;;;;15.10;8.35;;;12.20;86.20;;;;;;1871190;77;21079;-52
2021/09/29 05:19:05;;;;;;;11.88;6.25;;;12.20;86.00;;;;;;1871142;77;21035;-53
2021/09/29 05:21:35;;;;;;;18.10;7.75;;;12.20;86.00;;;;;;1871157;77;21094;-52
2021/09/29 05:24:04;;;;;;;15.38;9.15;;;12.30;85.90;;;;;;1871150;77;21082;-51
2021/09/29 05:26:34;;;;;;;11.33;6.45;;;12.30;85.80;;;;;;1871095;77;21094;-52
2021/09/29 05:29:11;;;;;;;16.27;7.05;;;12.20;85.70;;;;;;1871156;77;21097;-53
2021/09/29 05:31:36;;;;;;;17.42;7.53;;;12.20;85.70;;;;;;1868998;77;21098;-53
2021/09/29 05:34:06;;;;;;;17.95;8.58;;;12.20;85.60;;;;;;1871201;76;21039;-51
2021/09/29 05:36:35;;;;;;;10.03;5.67;;;12.30;85.80;;;;;;1869583;76;21087;-52
2021/09/29 05:39:05;;;;;;;14.60;7.03;;;12.30;85.80;;;;;;1905254;74;21086;-52
2021/09/29 05:41:34;;;;;;;14.47;7.20;;;12.30;85.60;;;;;;1905129;74;21066;-51
2021/09/29 05:44:03;;;;;;;13.15;7.10;;;12.30;85.60;;;;;;1905072;75;21035;-52
2021/09/29 05:46:33;;;;;;;14.20;8.20;;;12.30;85.50;;;;;;1868703;77;21045;-53
2021/09/29 05:49:03;;;;;;;10.58;7.08;;;12.40;85.60;;;;;;1905019;75;21066;-52
2021/09/29 05:51:32;;;;;;;19.60;4.67;;;12.40;85.60;;;;;;1868685;77;21002;-52
2021/09/29 05:54:02;;;;;;;11.90;6.55;;;12.40;85.60;;;;;;1905284;75;21023;-52
2021/09/29 05:56:31;;;;;;;15.72;6.53;;;12.40;85.50;;;;;;1868694;77;21096;-52
2021/09/29 05:59:01;;;;;;;9.63;6.00;;;12.40;85.50;;;;;;1905189;75;21548;-53
2021/09/29 06:01:30;;;;;;;12.05;6.60;;;12.50;85.60;;;;;;1905145;74;21023;-52
2021/09/29 06:03:59;;;;;;;9.53;5.65;;;12.50;85.50;;;;;;1868608;77;21100;-53
2021/09/29 06:06:29;;;;;;;17.62;6.90;;;12.50;85.50;;;;;;1905193;75;21073;-52
2021/09/29 06:08:58;;;;;;;12.65;6.67;;;12.50;85.30;;;;;;1868667;77;21002;-52
2021/09/29 06:11:28;;;;;;;14.38;6.90;;;12.60;85.20;;;;;;1905168;75;21066;-52
2021/09/29 06:14:01;;;;;;;13.05;6.78;;;12.60;85.10;;;;;;1868692;77;21022;-52
2021/09/29 06:16:28;;;;;;;13.90;6.92;;;12.60;85.20;;;;;;1905051;74;20996;-51
2021/09/29 06:18:58;;;;;;;14.65;7.75;;;12.70;85.10;;;;;;1905155;75;21023;-53
2021/09/29 06:21:27;;;;;;;15.23;8.33;;;12.70;85.30;;;;;;1868685;77;21035;-53
2021/09/29 06:23:56;;;;;;;14.80;8.03;;;12.80;85.00;;;;;;1905117;75;21020;-50
2021/09/29 06:26:26;;;;;;;16.67;7.03;;;12.80;84.90;;;;;;1868714;77;21026;-53
2021/09/29 06:28:55;;;;;;;13.13;7.37;;;12.80;84.80;;;;;;1905022;74;21035;-52
2021/09/29 06:31:26;;;;;;;17.07;8.03;;;12.80;84.90;;;;;;1905229;75;21019;-52
2021/09/29 06:33:55;;;;;;;14.30;6.80;;;12.80;84.90;;;;;;1868652;77;21092;-53
2021/09/29 06:36:24;;;;;;;12.00;6.67;;;12.90;84.80;;;;;;1905090;75;21121;-53
2021/09/29 06:38:54;;;;;;;18.90;7.35;;;12.90;84.80;;;;;;1879525;75;21057;-52
2021/09/29 06:41:24;;;;;;;10.72;5.00;;;13.00;84.70;;;;;;1927746;73;21018;-53
2021/09/29 06:43:53;;;;;;;15.05;5.92;;;13.00;84.40;;;;;;1881216;76;21002;-52
2021/09/29 06:46:23;;;;;;;15.50;8.45;;;13.10;84.30;;;;;;1927667;74;21076;-52
2021/09/29 06:48:52;;;;;;;23.18;8.05;;;13.10;84.10;;;;;;1881067;76;20998;-52
2021/09/29 06:51:21;;;;;;;14.63;6.10;;;13.10;84.10;;;;;;1927577;74;21018;-52
2021/09/29 06:53:51;;;;;;;15.58;7.10;;;13.20;83.90;;;;;;1881138;75;21030;-52
2021/09/29 06:56:20;;;;;;;13.10;7.28;;;13.20;83.50;;;;;;1927498;74;22251;-53
2021/09/29 06:58:52;;;;;;;17.60;7.60;;;13.20;83.50;;;;;;1881005;76;21038;-52
2021/09/29 07:01:21;;;;;;;18.02;8.40;;;13.30;83.50;;;;;;1927538;74;21038;-52
2021/09/29 07:03:51;;;;;;;17.40;7.12;;;13.30;83.20;;;;;;1881018;76;21049;-53
2021/09/29 07:06:20;;;;;;;17.90;7.83;;;13.30;83.30;;;;;;1927601;73;21076;-52
2021/09/29 07:08:50;;;;;;;18.42;7.70;;;13.40;83.10;;;;;;1880928;76;21026;-52
2021/09/29 07:11:19;;;;;;;14.80;7.83;;;13.40;82.80;;;;;;1927532;74;21018;-52
2021/09/29 07:13:48;;;;;;;10.00;6.25;;;13.50;82.50;;;;;;1880993;76;21010;-53
2021/09/29 07:16:19;;;;;;;17.35;7.20;;;13.50;82.30;;;;;;1927518;74;21080;-53
2021/09/29 07:18:49;;;;;;;9.40;6.78;;;13.50;82.50;;;;;;1881103;76;21100;-56
2021/09/29 07:21:18;;;;;;;13.00;6.53;;;13.60;83.80;;;;;;1927555;74;20987;-52
2021/09/29 07:23:48;;;;;;;14.13;6.55;;;13.70;84.40;;;;;;1880981;76;21038;-53
2021/09/29 07:26:17;;;;;;;12.43;6.12;;;14.00;84.80;;;;;;1927512;74;21019;-53
2021/09/29 07:28:48;;;;;;;15.65;7.45;;;14.10;83.80;;;;;;1880873;76;21022;-53
2021/09/29 07:31:18;;;;;;;5.25;4.35;;;14.30;83.90;;;;;;1927529;74;21022;-53
2021/09/29 07:33:48;;;;;;;6.62;4.30;;;14.40;82.50;;;;;;1847809;78;21034;-53
2021/09/29 07:36:17;;;;;;;13.45;5.37;;;14.40;81.80;;;;;;1927444;73;21109;-53
2021/09/29 07:38:47;;;;;;;12.75;6.37;;;14.50;82.00;;;;;;1873647;76;21104;-53
2021/09/29 07:41:16;;;;;;;9.33;5.62;;;14.50;82.00;;;;;;1905312;75;21101;-54
2021/09/29 07:43:45;;;;;;;12.50;6.53;;;14.50;82.10;;;;;;1905225;75;21047;-53
2021/09/29 07:46:15;;;;;;;12.03;5.65;;;14.60;81.10;;;;;;1868878;75;21065;-52
2021/09/29 07:48:44;;;;;;;14.87;6.95;;;14.60;80.90;;;;;;1905127;75;21099;-53
2021/09/29 07:51:14;;;;;;;12.65;5.25;;;14.70;80.90;;;;;;1905225;74;21020;-53
2021/09/29 07:53:45;;;;;;;13.28;7.10;;;14.80;80.80;;;;;;1866450;77;21155;-52
2021/09/29 07:56:15;;;;;;;11.03;5.97;;;14.80;80.40;;;;;;1905123;75;21070;-51
2021/09/29 07:58:44;;;;;;;12.23;6.17;;;14.90;80.80;;;;;;1868706;77;21026;-51
2021/09/29 08:01:13;;;;;;;11.40;5.72;;;15.00;79.50;;;;;;1905230;75;21012;-52
2021/09/29 08:03:45;;;;;;;10.65;6.37;;;15.00;79.20;;;;;;1868884;77;21092;-51
2021/09/29 08:06:14;;;;;;;20.50;7.45;;;15.00;78.80;;;;;;1903902;75;21073;-53
2021/09/29 08:08:44;;;;;;;20.90;8.35;;;15.00;79.20;;;;;;1868107;77;21108;-53
2021/09/29 08:11:13;;;;;;;9.88;5.42;;;15.00;79.70;;;;;;1904632;75;21090;-49
2021/09/29 08:13:43;;;;;;;16.07;8.50;;;15.20;79.10;;;;;;1904370;75;21035;-48
2021/09/29 08:16:12;;;;;;;17.62;9.60;;;15.20;78.30;;;;;;1868063;77;21065;-45
2021/09/29 08:18:42;;;;;;;9.70;6.62;;;15.30;78.70;;;;;;1904545;75;21121;-50
2021/09/29 08:21:17;;;;;;;15.00;5.62;;;15.50;78.40;;;;;;1904474;74;21085;-51
2021/09/29 08:23:45;;;;;;;17.73;7.25;;;15.50;77.20;;;;;;1866367;77;21539;-49
2021/09/29 08:29:06;;;;;;;12.35;6.15;;;15.60;76.80;;;;;;1904460;75;21020;-47
2021/09/29 08:34:05;;;;;;;16.50;6.80;;;15.60;76.80;;;;;;1904430;75;21071;-50
2021/09/29 08:36:33;;;;;;;31.87;7.20;;;15.60;76.80;;;;;;1903217;74;21160;-50
2021/09/29 08:39:05;;;;;;;17.40;7.67;;;15.70;76.30;;;;;;1872428;76;21030;-47
2021/09/29 08:41:49;;;;;;;12.10;5.40;;;15.70;76.70;;;;;;1925150;74;21047;-49
2021/09/29 08:44:17;;;;;;;7.60;5.05;;;15.70;76.30;;;;;;1879273;76;21007;-49
2021/09/29 08:49:43;;;;;;;6.83;5.20;;;15.80;74.80;;;;;;1880389;76;21105;-49
2021/09/29 09:17:29;;;;;;;9.03;4.90;;;15.90;73.50;;;;;;1846651;78;21046;-47
2021/09/29 09:20:16;;;;;;;10.60;6.10;;;16.10;72.80;;;;;;1926744;74;21074;-50
2021/09/29 09:22:48;;;;;;;11.85;6.42;;;16.20;72.70;;;;;;1880111;76;21101;-51
2021/09/29 09:25:18;;;;;;;9.53;4.50;;;16.30;73.00;;;;;;1926635;74;21464;-49
2021/09/29 09:27:48;;;;;;;14.15;5.58;;;16.30;72.20;;;;;;1847110;78;21150;-49
2021/09/29 09:30:29;;;;;;;15.18;4.85;;;16.30;72.50;;;;;;1927028;74;20998;-51
2021/09/29 09:32:59;;;;;;;8.10;4.47;;;16.30;71.30;;;;;;1881044;76;21420;-49
2021/09/29 09:35:31;;;;;;;19.82;6.67;;;16.30;72.10;;;;;;1927550;74;21084;-48
2021/09/29 09:38:01;;;;;;;9.33;4.70;;;16.40;72.40;;;;;;1879138;76;20994;-50
2021/09/29 09:40:32;;;;;;;15.58;6.22;;;16.40;71.60;;;;;;1919087;74;21120;-45
2021/09/29 09:43:03;;;;;;;17.07;6.15;;;16.50;71.60;;;;;;1868863;77;21076;-48
2021/09/29 09:45:48;;;;;;;7.42;4.50;;;16.60;71.90;;;;;;1905308;74;21112;-49
2021/09/29 09:48:14;;;;;;;10.68;5.47;;;16.70;70.60;;;;;;1901891;74;21129;-50
2021/09/29 09:50:43;;;;;;;16.80;6.62;;;16.80;70.90;;;;;;1868942;77;21088;-47
2021/09/29 09:53:16;;;;;;;13.95;5.65;;;16.80;71.00;;;;;;1905084;75;20995;-49
2021/09/29 09:55:46;;;;;;;12.07;5.75;;;16.90;70.30;;;;;;1905142;75;21035;-49
2021/09/29 09:58:15;;;;;;;12.93;5.90;;;16.90;69.90;;;;;;1868660;77;21077;-47
2021/09/29 10:00:44;;;;;;;13.50;6.12;;;16.90;69.00;;;;;;1905279;75;21527;-49
2021/09/29 10:03:15;;;;;;;11.68;5.22;;;16.90;69.50;;;;;;1868676;77;21088;-50
2021/09/29 10:05:49;;;;;;;15.13;6.72;;;16.90;69.70;;;;;;1905170;75;21039;-50
2021/09/29 10:08:17;;;;;;;10.13;5.03;;;17.00;69.50;;;;;;1905260;75;21138;-48
2021/09/29 10:11:04;;;;;;;10.03;5.28;;;17.10;68.70;;;;;;1905144;75;21153;-46
2021/09/29 10:27:24;;;;;;;8.95;4.25;;;16.80;68.60;;;;;;1868880;77;21026;-47
2021/09/29 10:30:07;;;;;;;11.00;5.87;;;16.80;68.50;;;;;;1905291;75;21047;-47
2021/09/29 10:32:34;;;;;;;6.92;4.75;;;16.80;68.80;;;;;;1904918;74;21438;-49
2021/09/29 10:38:01;;;;;;;9.65;4.42;;;16.80;68.20;;;;;;1905244;75;21024;-46
2021/09/29 10:40:39;;;;;;;11.33;5.45;;;16.90;68.00;;;;;;1905128;74;21055;-48
2021/09/29 10:43:04;;;;;;;11.80;6.42;;;16.80;67.80;;;;;;1867913;77;21042;-49
2021/09/29 11:30:52;;;;;;;10.35;4.55;;;17.10;67.50;;;;;;1868836;77;21046;-46
2021/09/29 11:33:44;;;;;;;8.33;4.75;;;17.00;67.70;;;;;;1904052;74;21075;-47
2021/09/29 11:36:30;;;;;;;9.13;6.30;;;17.00;67.60;;;;;;1905131;74;21019;-49
2021/09/29 11:50:28;;;;;;;10.70;5.50;;;17.00;67.80;;;;;;1872282;77;21051;-46
2021/09/29 12:12:25;;;;;;;9.05;4.65;;;17.10;67.30;;;;;;1872178;77;21055;-45
2021/09/29 12:15:02;;;;;;;6.05;4.80;;;17.10;66.90;;;;;;1872464;77;21059;-46
2021/09/29 12:17:34;;;;;;;12.95;5.22;;;17.10;66.80;;;;;;1872019;77;21481;-49
2021/09/29 12:20:14;;;;;;;8.05;4.08;;;17.10;66.90;;;;;;1872229;77;21035;-46
2021/09/29 12:22:48;;;;;;;11.78;4.75;;;17.10;67.00;;;;;;1872101;77;21040;-45
2021/09/29 12:25:55;;;;;;;7.42;4.95;;;17.10;67.10;;;;;;1872217;77;21168;-49
2021/09/29 12:31:27;;;;;;;6.90;4.92;;;17.10;67.30;;;;;;1872114;76;21126;-48
2021/09/29 12:34:18;;;;;;;5.00;4.50;;;17.10;66.90;;;;;;1868323;77;21062;-48
2021/09/29 12:36:30;;;;;;;6.10;3.50;;;17.10;66.80;;;;;;1857126;77;21121;-45
2021/09/29 12:39:00;;;;;;;8.73;4.28;;;17.10;65.80;;;;;;1872156;77;21097;-48
2021/09/29 12:41:31;;;;;;;10.03;4.58;;;17.10;66.00;;;;;;1866491;76;21063;-46
2021/09/29 12:44:05;;;;;;;8.18;4.83;;;17.10;66.10;;;;;;1905305;74;21019;-49
2021/09/29 12:46:35;;;;;;;14.13;8.97;;;17.10;66.40;;;;;;1905503;75;21067;-46
2021/09/29 12:49:12;;;;;;;11.85;6.22;;;17.10;66.50;;;;;;1868759;77;21022;-46
2021/09/29 12:51:37;;;;;;;20.60;10.30;;;17.10;66.00;;;;;;1905098;74;21118;-47
2021/09/29 12:54:08;;;;;;;7.58;4.80;;;17.10;66.20;;;;;;1905176;74;21469;-48
2021/09/29 12:56:37;;;;;;;5.83;4.92;;;17.10;66.20;;;;;;1905228;74;21043;-49
2021/09/29 12:59:06;;;;;;;9.23;5.25;;;17.10;66.40;;;;;;1905314;75;20995;-46
2021/09/29 13:01:36;;;;;;;19.60;11.33;;;17.10;66.50;;;;;;1905370;75;21023;-48
2021/09/29 13:04:05;;;;;;;12.78;7.30;;;17.20;66.70;;;;;;1905411;74;21011;-47
2021/09/29 13:06:35;;;;;;;13.00;5.65;;;17.20;66.80;;;;;;1905337;75;21086;-46
2021/09/29 13:09:04;;;;;;;10.88;6.42;;;17.20;66.10;;;;;;1868836;77;21076;-46
2021/09/29 13:11:34;;;;;;;13.70;7.58;;;17.30;65.90;;;;;;1905108;75;21003;-48
2021/09/29 13:14:03;;;;;;;9.50;5.37;;;17.30;65.70;;;;;;1868798;77;21018;-46
2021/09/29 13:16:33;;;;;;;10.32;6.08;;;17.20;65.60;;;;;;1905260;75;21015;-46
2021/09/29 13:19:12;;;;;;;9.38;5.53;;;17.20;65.90;;;;;;1905277;75;21087;-49
2021/09/29 13:24:18;;;;;;;7.83;4.35;;;17.20;65.90;;;;;;1905297;75;21577;-49
2021/09/29 13:27:12;;;;;;;10.80;4.60;;;17.20;65.80;;;;;;1904337;74;21571;-48
2021/09/29 13:37:42;;;;;;;6.37;4.15;;;17.10;65.80;;;;;;1905227;75;21031;-48
2021/09/29 13:40:12;;;;;;;8.65;5.40;;;17.10;65.50;;;;;;1905155;75;21164;-50
2021/09/29 13:42:42;;;;;;;11.53;5.45;;;17.10;65.50;;;;;;1921319;74;21026;-47
2021/09/29 13:45:11;;;;;;;7.62;5.72;;;17.10;65.70;;;;;;1924574;74;21026;-48
2021/09/29 13:47:40;;;;;;;10.85;5.67;;;17.00;65.80;;;;;;1924680;74;20991;-49
2021/09/29 13:50:12;;;;;;;12.43;5.60;;;17.00;65.60;;;;;;1887814;76;21033;-46
2021/09/29 13:52:42;;;;;;;10.18;6.10;;;17.00;65.80;;;;;;1877940;76;21497;-47
2021/09/29 13:55:15;;;;;;;8.95;4.55;;;16.90;65.90;;;;;;1877960;76;21100;-49
2021/09/29 14:37:58;;;;;;;10.10;5.90;;;16.50;66.40;;;;;;1953621;72;27982;-45
2021/09/29 14:40:27;;;;;;;8.75;5.58;;;16.90;66.30;;;;;;1954368;73;21096;-47
2021/09/29 14:42:57;;;;;;;8.53;5.20;;;16.90;66.50;;;;;;1954450;72;20982;-46
2021/09/29 14:45:26;;;;;;;9.43;5.47;;;16.80;65.90;;;;;;1954403;73;21018;-48
2021/09/29 14:47:56;;;;;;;6.50;4.95;;;16.70;66.30;;;;;;1954332;73;21456;-49
2021/09/29 14:50:28;;;;;;;13.88;6.53;;;16.70;66.40;;;;;;1954415;73;21014;-47
2021/09/29 14:53:00;;;;;;;7.55;5.05;;;16.60;66.40;;;;;;1954534;72;21497;-46
2021/09/29 14:55:33;;;;;;;8.65;5.75;;;16.60;66.50;;;;;;1954464;73;21194;-48
2021/09/29 14:58:04;;;;;;;12.05;6.12;;;16.50;66.80;;;;;;1954361;73;21022;-47
2021/09/29 15:00:33;;;;;;;8.98;5.35;;;16.50;66.80;;;;;;1954323;73;21026;-44
2021/09/29 15:03:03;;;;;;;9.05;4.53;;;16.50;66.90;;;;;;1954357;73;21068;-46
2021/09/29 15:05:33;;;;;;;8.75;6.33;;;16.40;66.80;;;;;;1954458;73;21027;-48
2021/09/29 15:08:02;;;;;;;19.12;7.47;;;16.40;67.00;;;;;;1954470;73;21014;-48
2021/09/29 15:10:31;;;;;;;10.15;6.80;;;16.40;67.20;;;;;;1954424;73;21084;-45
2021/09/29 15:13:04;;;;;;;9.78;5.83;;;16.30;67.20;;;;;;1954437;73;21108;-45
2021/09/29 15:15:34;;;;;;;9.63;5.70;;;16.30;67.10;;;;;;1954196;73;21080;-47
2021/09/29 15:18:08;;;;;;;9.10;5.35;;;16.30;67.10;;;;;;1954399;73;21055;-46
2021/09/29 15:26:06;;;;;;;8.80;5.20;;;16.20;67.10;;;;;;1954259;73;21081;-47
2021/09/29 15:31:23;;;;;;;10.23;5.65;;;16.20;66.60;;;;;;1954282;73;21084;-45
2021/09/29 15:47:49;;;;;;;12.00;5.55;;;16.00;66.40;;;;;;1971136;73;21010;-44
2021/09/29 15:55:47;;;;;;;57.40;26.33;;;16.00;66.30;;;;;;1971159;73;21107;-48
2021/09/29 16:00:50;;;;;;;26.60;11.33;;;16.00;66.10;;;;;;1971252;73;21010;-47
2021/09/29 16:11:53;;;;;;;21.73;5.42;;;15.90;66.40;;;;;;1971173;71;21091;-46
2021/09/29 16:16:44;;;;;;;15.38;7.95;;;15.80;65.90;;;;;;1971263;73;21134;-46
2021/09/29 16:22:03;;;;;;;13.43;6.50;;;15.80;66.10;;;;;;1971194;73;21013;-49
2021/09/29 16:37:32;;;;;;;12.43;6.10;;;15.70;66.30;;;;;;1971089;73;21053;-46
2021/09/29 16:40:02;;;;;;;14.45;6.10;;;15.70;66.60;;;;;;1971113;73;21017;-50
2021/09/29 16:42:31;;;;;;;15.88;7.53;;;15.70;66.50;;;;;;1971132;71;21013;-46
2021/09/29 16:45:04;;;;;;;15.35;5.92;;;15.70;66.50;;;;;;1971056;73;21512;-50
2021/09/29 16:47:31;;;;;;;13.50;5.85;;;15.60;66.70;;;;;;1971093;73;21091;-46
2021/09/29 16:50:00;;;;;;;9.20;5.05;;;15.60;66.70;;;;;;1971167;72;21065;-46
2021/09/29 16:55:06;;;;;;;15.23;5.67;;;15.60;66.50;;;;;;1971484;73;21071;-49